This demonstration page uses our WeatherBlox Daily Observations layout. Learn more.

Hourly Observations for December 16, 2017

Temp ( °F °C ) Dew Point ( °F °C ) Humidity (%) Winds ( mph kmh ) Pressure ( in mb ) Visibility ( mi km ) Precip ( " mm )
12:53 am 00:53 Cloudy 33 0.6 24 -4.4 70 70 SW 8 13 30.11 1020 10 16.0934 0 0
1:53 am 01:53 Cloudy 34 1.1 25 -3.9 70 70 SW 6 9 30.09 1019 10 16.0934 0 0
2:53 am 02:53 Cloudy 34 1.1 25 -3.9 70 70 SW 7 11 30.11 1020 10 16.0934 0 0
3:53 am 03:53 Cloudy 35 1.7 25 -3.9 67 67 SW 5 7 30.11 1020 10 16.0934 0 0
4:53 am 04:53 Cloudy 35 1.7 25 -3.9 67 67 VRB 5 7 30.09 1019 10 16.0934 0 0
5:53 am 05:53 Mostly Cloudy 34 1.1 25 -3.9 70 70 SSW 6 9 30.1 1019 10 16.0934 0 0
6:53 am 06:53 Mostly Cloudy 33 0.6 25 -3.9 72 72 S 3 6 30.09 1019 10 16.0934 0 0
7:53 am 07:53 Sunny 33 0.6 26 -3.3 75 75 SSW 8 13 30.1 1019 10 16.0934 0 0
8:53 am 08:53 Sunny 35 1.7 26 -3.3 70 70 SSW 6 9 30.1 1019 10 16.0934 0 0
9:53 am 09:53 Sunny 38 3.3 27 -2.8 65 65 S 7 11 30.11 1020 10 16.0934 0 0
10:53 am 10:53 Sunny 42 5.6 28 -2.2 58 58 SW 13 20 30.12 1020 10 16.0934 0 0
11:53 am 11:53 Sunny 46 7.8 28 -2.2 50 50 SW 9 15 30.1 1019 10 16.0934 0 0
12:53 pm 12:53 Sunny 48 8.9 29 -1.7 48 48 SW 9 15 30.08 1019 10 16.0934 0 0
1:53 pm 13:53 Sunny 50 10 29 -1.7 44 44 SSW 12 19 30.05 1018 10 16.0934 0 0
2:53 pm 14:53 Sunny 51 10.6 27 -2.8 39 39 SSW 14 22 30.06 1018 10 16.0934 0 0
3:53 pm 15:53 Sunny 51 10.6 26 -3.3 38 38 SW 8 13 30.05 1018 10 16.0934 0 0
4:53 pm 16:53 Sunny 49 9.4 26 -3.3 41 41 SW 9 15 30.07 1018 10 16.0934 0 0
5:53 pm 17:53 Clear 47 8.3 27 -2.8 46 46 SSW 7 11 30.08 1019 10 16.0934 0 0
6:53 pm 18:53 Clear 44 6.7 27 -2.8 51 51 S 3 6 30.1 1019 10 16.0934 0 0
7:53 pm 19:53 Clear 41 5 28 -2.2 60 60 Calm 30.13 1020 10 16.0934 0 0
8:53 pm 20:53 Clear 37 2.8 27 -2.8 67 67 SW 5 7 30.14 1021 10 16.0934 0 0
9:53 pm 21:53 Clear 41 5 28 -2.2 60 60 SSW 5 7 30.16 1021 10 16.0934 0 0
10:53 pm 22:53 Clear 33 0.6 27 -2.8 78 78 Calm 30.18 1022 10 16.0934 0 0
11:53 pm 23:53 Clear 30 -1.1 25 -3.9 82 82 E 3 6 30.19 1023 10 16.0934 0 0

Powered by AerisWeather